Faringdon, United Kingdom
Current Conditions -  °F | °C
As of 3:50 AM on Friday 28 Nov 2014 (Local Time) from EGVN Reporting Station
Haze Haze  
Wind Chill:   Ceiling: 1700
Heat Index:   Visibility: 2.8mi
Dew Point:   Wind: 7mph
Humidity: 93%   Direction: 70°ENE
Pressure: 29.56"   Gusts: NA
Location:  51.66°N, 1.59°W
Report Text: EGVN 280350Z 07006KT 4500 BR OVC017 09/08 Q1001 NOSIG
Loading
Personal Weather Stations






























Interactive Weather Map New forecast layout! Learn more

10-Day Weather Forecast

Advertisements
Track Severe Weather on mobile